Time;durP1;ratioP1;P1;durP2;ratioP2;P2;SDS_P1;SDS_P2;PMS_P1;PMS_P2;Temp;Humidity;BMP_temperature;BMP_pressure;BME280_temperature;BME280_humidity;BME280_pressure;Samples;Min_cycle;Max_cycle;Signal;HPM_P1;HPM_P2
2021/03/15 00:00:33;;;;;;;8.95;4.70;;;4.40;82.50;;;;;;5018820;28;20120;-90
2021/03/15 00:03:00;;;;;;;7.13;5.15;;;4.30;82.30;;;;;;5019032;28;20075;-91
2021/03/15 00:05:25;;;;;;;11.02;4.85;;;4.30;82.40;;;;;;5018810;28;20033;-91
2021/03/15 00:07:51;;;;;;;7.85;4.47;;;4.30;82.40;;;;;;5018949;28;20028;-90
2021/03/15 00:10:17;;;;;;;5.97;4.35;;;4.40;82.50;;;;;;5018619;28;20040;-90
2021/03/15 00:12:43;;;;;;;8.13;4.80;;;4.40;82.40;;;;;;5018870;28;20080;-90
2021/03/15 00:15:11;;;;;;;7.88;4.60;;;4.40;82.40;;;;;;5018673;28;20080;-90
2021/03/15 00:17:36;;;;;;;7.30;4.43;;;4.40;82.30;;;;;;5018497;28;20048;-90
2021/03/15 00:20:05;;;;;;;8.95;4.72;;;4.30;82.20;;;;;;5018281;28;20535;-90
2021/03/15 00:22:31;;;;;;;7.38;4.50;;;4.40;82.40;;;;;;5018787;28;20080;-90
2021/03/15 00:24:56;;;;;;;11.82;4.88;;;4.40;82.30;;;;;;5018847;28;20021;-90
2021/03/15 00:27:22;;;;;;;8.32;4.22;;;4.40;82.40;;;;;;5018882;28;20060;-90
2021/03/15 00:29:50;;;;;;;8.40;4.18;;;4.40;82.30;;;;;;5019089;28;20026;-90
2021/03/15 00:32:16;;;;;;;10.07;4.38;;;4.40;82.30;;;;;;5022277;28;20072;-90
2021/03/15 00:34:41;;;;;;;7.35;4.43;;;4.40;82.20;;;;;;5021969;28;20033;-91
2021/03/15 00:37:07;;;;;;;6.57;3.90;;;4.40;82.30;;;;;;5019593;28;20025;-90
2021/03/15 00:39:32;;;;;;;7.88;4.60;;;4.50;82.40;;;;;;5021456;28;20049;-90
2021/03/15 00:41:58;;;;;;;5.57;4.07;;;4.50;82.30;;;;;;5019634;28;20018;-89
2021/03/15 00:44:23;;;;;;;9.00;4.45;;;4.50;82.60;;;;;;5018086;28;20180;-90
2021/03/15 00:46:49;;;;;;;6.38;4.07;;;4.50;82.50;;;;;;5018254;28;20506;-90
2021/03/15 00:49:15;;;;;;;12.23;4.18;;;4.50;82.50;;;;;;5016921;28;20037;-90
2021/03/15 00:51:40;;;;;;;8.52;4.07;;;4.40;82.50;;;;;;5018165;28;20340;-90
2021/03/15 00:54:06;;;;;;;6.45;3.65;;;4.40;82.60;;;;;;5017907;28;20033;-90
2021/03/15 00:56:32;;;;;;;6.45;4.07;;;4.50;82.60;;;;;;5018110;28;20026;-90
2021/03/15 00:58:58;;;;;;;11.18;4.85;;;4.40;82.60;;;;;;5017839;28;20041;-90
2021/03/15 01:01:23;;;;;;;6.30;4.47;;;4.50;82.70;;;;;;5017555;28;20483;-90
2021/03/15 01:03:49;;;;;;;7.75;3.97;;;4.50;82.70;;;;;;5017813;28;20026;-90
2021/03/15 01:06:14;;;;;;;7.90;4.10;;;4.50;82.50;;;;;;5017662;28;20033;-90
2021/03/15 01:08:41;;;;;;;6.75;4.18;;;4.50;82.50;;;;;;5017825;28;20025;-90
2021/03/15 01:11:07;;;;;;;10.50;4.68;;;4.50;82.50;;;;;;5017703;28;20029;-90
2021/03/15 01:13:33;;;;;;;4.38;3.70;;;4.50;82.50;;;;;;5017718;28;20022;-90
2021/03/15 01:15:59;;;;;;;5.95;3.78;;;4.40;82.50;;;;;;5017510;28;20039;-90
2021/03/15 01:18:24;;;;;;;4.70;3.92;;;4.40;82.60;;;;;;5017445;28;20049;-90
2021/03/15 01:20:50;;;;;;;10.40;4.28;;;4.40;82.50;;;;;;5017424;28;20476;-90
2021/03/15 01:23:16;;;;;;;7.68;4.18;;;4.50;82.50;;;;;;5017136;28;20108;-91
2021/03/15 01:25:42;;;;;;;5.57;3.97;;;4.50;82.50;;;;;;5017123;28;20403;-89
2021/03/15 01:28:11;;;;;;;6.43;4.63;;;4.40;82.50;;;;;;5017532;28;20499;-90
2021/03/15 01:30:38;;;;;;;6.15;4.40;;;4.50;82.60;;;;;;5017517;28;20028;-90
2021/03/15 01:33:04;;;;;;;7.75;4.65;;;4.50;82.50;;;;;;5017006;28;20032;-90
2021/03/15 01:35:30;;;;;;;8.18;4.90;;;4.50;82.40;;;;;;5017206;28;20403;-90
2021/03/15 01:37:56;;;;;;;7.20;4.30;;;4.40;82.40;;;;;;5016845;28;20017;-89
2021/03/15 01:40:24;;;;;;;6.72;4.93;;;4.40;82.50;;;;;;5017244;28;20064;-90
2021/03/15 01:42:50;;;;;;;8.07;4.65;;;4.40;82.60;;;;;;5017135;28;20030;-90
2021/03/15 01:45:15;;;;;;;8.15;4.95;;;4.40;83.10;;;;;;5017217;28;20068;-90
2021/03/15 01:47:43;;;;;;;9.90;5.55;;;4.40;82.60;;;;;;5016740;28;20522;-90
2021/03/15 01:50:11;;;;;;;9.23;4.85;;;4.40;82.70;;;;;;5017143;28;20083;-90
2021/03/15 01:52:39;;;;;;;8.68;5.13;;;4.40;82.70;;;;;;5017170;28;20083;-90
2021/03/15 01:55:07;;;;;;;6.40;5.05;;;4.40;82.80;;;;;;5016619;28;20098;-91
2021/03/15 01:57:33;;;;;;;6.00;4.80;;;4.40;82.90;;;;;;5016440;28;20025;-90
2021/03/15 01:59:59;;;;;;;8.05;5.82;;;4.40;82.90;;;;;;5017130;28;20105;-87
2021/03/15 02:02:26;;;;;;;8.63;5.45;;;4.30;82.90;;;;;;5016454;28;20091;-88
2021/03/15 02:04:53;;;;;;;12.15;5.45;;;4.30;83.00;;;;;;5016437;28;20025;-87
2021/03/15 02:07:18;;;;;;;5.47;4.70;;;4.30;83.10;;;;;;5016512;28;20487;-88
2021/03/15 02:09:44;;;;;;;7.18;4.95;;;4.40;83.10;;;;;;5016892;28;20119;-87
2021/03/15 02:12:25;;;;;;;7.05;4.82;;;4.40;83.10;;;;;;5016608;28;20060;-88
2021/03/15 02:15:00;;;;;;;8.95;5.07;;;4.40;83.20;;;;;;5016557;28;20036;-88
2021/03/15 02:18:01;;;;;;;9.27;5.38;;;4.40;83.20;;;;;;5016436;28;20116;-87
2021/03/15 02:20:41;;;;;;;7.47;4.75;;;4.50;83.20;;;;;;5016817;28;20029;-88
2021/03/15 02:23:14;;;;;;;8.93;5.05;;;4.50;83.10;;;;;;5016611;28;20060;-87
2021/03/15 02:25:59;;;;;;;6.40;4.95;;;4.50;83.20;;;;;;5016769;28;20076;-87
2021/03/15 02:28:40;;;;;;;8.90;4.70;;;4.50;83.20;;;;;;5016097;28;20029;-88
2021/03/15 02:31:31;;;;;;;10.32;5.25;;;4.50;83.20;;;;;;5016135;28;20026;-88
2021/03/15 02:34:30;;;;;;;8.13;5.05;;;4.50;83.30;;;;;;5016176;28;20087;-87
2021/03/15 02:36:58;;;;;;;10.48;5.15;;;4.50;83.30;;;;;;5016336;28;20124;-89
2021/03/15 02:39:29;;;;;;;10.75;5.20;;;4.60;83.30;;;;;;5016324;28;20087;-88
2021/03/15 02:41:59;;;;;;;9.88;5.15;;;4.60;83.40;;;;;;5016323;28;20017;-88
2021/03/15 02:44:26;;;;;;;7.63;4.65;;;4.60;83.40;;;;;;5016496;28;20060;-88
2021/03/15 02:46:54;;;;;;;9.73;4.47;;;4.60;83.40;;;;;;5016097;28;20116;-87
2021/03/15 02:49:23;;;;;;;11.15;4.63;;;4.70;83.40;;;;;;5015792;28;20025;-87
2021/03/15 02:51:50;;;;;;;13.35;4.35;;;4.70;83.50;;;;;;5015681;28;20388;-87
2021/03/15 02:54:18;;;;;;;7.93;4.53;;;4.70;83.40;;;;;;5016217;28;20515;-87
2021/03/15 02:56:47;;;;;;;11.30;4.75;;;4.70;83.50;;;;;;5015777;28;20029;-87
2021/03/15 02:59:14;;;;;;;6.45;4.35;;;4.70;83.50;;;;;;5015376;28;20374;-88
2021/03/15 03:01:42;;;;;;;10.13;3.92;;;4.70;83.40;;;;;;5016032;28;20076;-87
2021/03/15 03:04:10;;;;;;;9.38;4.55;;;4.70;83.40;;;;;;5016138;28;20065;-88
2021/03/15 03:06:39;;;;;;;12.02;4.13;;;4.70;83.40;;;;;;5015658;28;20053;-88
2021/03/15 03:09:07;;;;;;;11.52;4.85;;;4.70;83.20;;;;;;5015376;28;20026;-88
2021/03/15 03:11:35;;;;;;;13.55;4.65;;;4.70;83.50;;;;;;5015638;28;20056;-88
2021/03/15 03:14:02;;;;;;;9.00;4.25;;;4.70;83.20;;;;;;5018466;28;20037;-88
2021/03/15 03:16:33;;;;;;;7.68;4.57;;;4.70;83.20;;;;;;5019561;28;20026;-88
2021/03/15 03:19:00;;;;;;;8.30;4.13;;;4.70;83.20;;;;;;5019223;28;20112;-87
2021/03/15 03:21:27;;;;;;;9.23;3.95;;;4.70;83.00;;;;;;5019239;28;20021;-88
2021/03/15 03:23:56;;;;;;;9.82;3.40;;;4.70;83.10;;;;;;5019419;28;20069;-88
2021/03/15 03:26:25;;;;;;;8.48;3.78;;;4.70;83.10;;;;;;5018938;28;20041;-87
2021/03/15 03:28:55;;;;;;;10.10;4.10;;;4.70;83.10;;;;;;5019192;28;20116;-87
2021/03/15 03:31:23;;;;;;;8.57;3.95;;;4.70;83.00;;;;;;5019460;28;20037;-87
2021/03/15 03:33:49;;;;;;;10.70;3.95;;;4.70;82.90;;;;;;5019183;28;20045;-88
2021/03/15 03:36:15;;;;;;;9.38;4.15;;;4.70;82.90;;;;;;5019277;28;20072;-87
2021/03/15 03:38:42;;;;;;;10.50;4.03;;;4.70;82.90;;;;;;5019017;28;20053;-88
2021/03/15 03:41:08;;;;;;;12.27;4.00;;;4.70;82.90;;;;;;5020248;28;20026;-88
2021/03/15 03:43:34;;;;;;;13.35;4.40;;;4.70;82.90;;;;;;5032574;28;20127;-87
2021/03/15 03:45:59;;;;;;;15.82;4.85;;;4.70;82.80;;;;;;5040291;28;20021;-87
2021/03/15 03:48:25;;;;;;;11.38;5.00;;;4.70;82.80;;;;;;5039522;28;20052;-87
2021/03/15 03:50:51;;;;;;;11.02;4.20;;;4.70;82.80;;;;;;5038488;28;20483;-88
2021/03/15 03:53:27;;;;;;;9.65;4.03;;;4.70;82.80;;;;;;5038509;28;20119;-88
2021/03/15 03:56:08;;;;;;;8.95;4.00;;;4.70;82.90;;;;;;5038699;28;20112;-88
2021/03/15 03:58:48;;;;;;;7.97;3.60;;;4.70;82.90;;;;;;5038254;28;20107;-88
2021/03/15 04:01:15;;;;;;;13.32;4.50;;;4.70;82.80;;;;;;5038308;28;20079;-87
2021/03/15 04:03:44;;;;;;;13.13;4.00;;;4.70;82.70;;;;;;5071439;22;20075;-84
2021/03/15 04:06:12;;;;;;;12.18;4.60;;;4.80;83.30;;;;;;5025322;28;20033;-85
2021/03/15 04:08:48;;;;;;;14.55;4.47;;;4.80;82.80;;;;;;5025755;28;20026;-84
2021/03/15 04:11:14;;;;;;;9.98;4.00;;;4.70;82.80;;;;;;5025445;28;20175;-83
2021/03/15 04:13:43;;;;;;;12.00;4.25;;;4.70;82.70;;;;;;5026133;28;20149;-83
2021/03/15 04:16:12;;;;;;;14.27;4.50;;;4.70;83.30;;;;;;5025049;28;20025;-83
2021/03/15 04:18:41;;;;;;;10.38;4.30;;;4.70;82.90;;;;;;5024352;28;20026;-83
2021/03/15 04:21:08;;;;;;;8.30;4.15;;;4.70;82.80;;;;;;5024075;28;20034;-83
2021/03/15 04:23:38;;;;;;;8.38;4.13;;;4.70;82.90;;;;;;5028221;28;20094;-83
2021/03/15 04:26:05;;;;;;;13.25;4.70;;;4.70;82.90;;;;;;5023198;28;20053;-82
2021/03/15 04:28:33;;;;;;;12.23;4.90;;;4.70;83.00;;;;;;5021169;28;20034;-83
2021/03/15 04:31:00;;;;;;;8.60;4.38;;;4.70;83.10;;;;;;5015339;28;20039;-83
2021/03/15 04:33:26;;;;;;;15.00;4.63;;;4.70;83.00;;;;;;5020668;28;20029;-83
2021/03/15 04:35:53;;;;;;;14.48;4.40;;;4.70;83.00;;;;;;5021474;28;20064;-83
2021/03/15 04:38:21;;;;;;;7.93;4.47;;;4.70;83.10;;;;;;5023339;28;20033;-83
2021/03/15 04:40:48;;;;;;;9.48;4.50;;;4.80;83.20;;;;;;5020845;28;20044;-83
2021/03/15 04:43:15;;;;;;;11.88;4.70;;;4.70;83.10;;;;;;5012013;28;20022;-82
2021/03/15 04:45:43;;;;;;;9.70;4.85;;;4.70;83.10;;;;;;5020451;28;20068;-83
2021/03/15 04:48:29;;;;;;;14.82;5.13;;;4.70;83.10;;;;;;5019258;28;20038;-83
2021/03/15 04:50:57;;;;;;;10.05;4.65;;;4.70;83.00;;;;;;5014732;28;20092;-83
2021/03/15 04:53:24;;;;;;;15.35;4.82;;;4.70;83.10;;;;;;5012143;28;20064;-83
2021/03/15 04:55:50;;;;;;;13.13;4.72;;;4.70;83.10;;;;;;5015251;28;20328;-83
2021/03/15 04:58:17;;;;;;;13.35;5.05;;;4.70;83.10;;;;;;5020723;28;20033;-83
2021/03/15 05:00:44;;;;;;;13.63;4.93;;;4.70;83.10;;;;;;5023700;28;20510;-82
2021/03/15 05:03:13;;;;;;;10.95;5.45;;;4.70;83.20;;;;;;5020822;28;20029;-83
2021/03/15 05:05:39;;;;;;;14.40;6.70;;;4.60;83.20;;;;;;5024097;28;20479;-82
2021/03/15 05:08:08;;;;;;;13.82;5.90;;;4.60;83.20;;;;;;5021973;28;20036;-83
2021/03/15 05:10:34;;;;;;;14.98;5.70;;;4.60;83.30;;;;;;5021069;28;20030;-82
2021/03/15 05:13:02;;;;;;;16.50;5.63;;;4.60;83.40;;;;;;5022219;28;20488;-83
2021/03/15 05:15:28;;;;;;;14.13;6.07;;;4.60;84.00;;;;;;5023704;28;20109;-83
2021/03/15 05:17:56;;;;;;;26.90;14.65;;;4.60;83.60;;;;;;5021017;28;20030;-83
2021/03/15 05:20:21;;;;;;;17.58;6.75;;;4.50;83.60;;;;;;5021569;28;20029;-82
2021/03/15 05:22:47;;;;;;;13.60;6.20;;;4.50;83.60;;;;;;5026611;28;20026;-82
2021/03/15 05:25:14;;;;;;;13.82;6.10;;;4.50;83.70;;;;;;5028731;28;20025;-83
2021/03/15 05:27:41;;;;;;;12.73;5.00;;;4.50;83.70;;;;;;5026445;28;20137;-82
2021/03/15 05:30:10;;;;;;;10.23;5.50;;;4.40;83.70;;;;;;5023045;28;20026;-83
2021/03/15 05:32:41;;;;;;;21.67;6.82;;;4.40;83.80;;;;;;5020404;28;20022;-84
2021/03/15 05:35:09;;;;;;;11.10;5.85;;;4.40;83.90;;;;;;5022230;28;20038;-83
2021/03/15 05:37:36;;;;;;;11.52;6.03;;;4.30;83.80;;;;;;5025000;28;20034;-83
2021/03/15 05:40:05;;;;;;;9.70;5.25;;;4.20;83.80;;;;;;5024624;28;20029;-83
2021/03/15 05:42:46;;;;;;;6.72;4.13;;;4.10;83.70;;;;;;5018565;28;20124;-83
2021/03/15 05:45:25;;;;;;;10.57;5.22;;;4.10;83.90;;;;;;5010282;28;20048;-83
2021/03/15 05:48:15;;;;;;;11.63;5.00;;;4.00;83.90;;;;;;5019260;28;20033;-83
2021/03/15 05:51:12;;;;;;;11.45;5.35;;;4.00;84.00;;;;;;5014765;28;20057;-83
2021/03/15 05:53:58;;;;;;;7.45;5.05;;;4.00;84.10;;;;;;5015812;28;20026;-83
2021/03/15 05:56:52;;;;;;;8.43;4.60;;;3.90;84.20;;;;;;5018048;28;20395;-82
2021/03/15 05:59:39;;;;;;;8.73;5.10;;;3.90;84.30;;;;;;5014960;28;20406;-82
2021/03/15 06:02:31;;;;;;;9.27;4.97;;;3.90;84.60;;;;;;5016944;28;20022;-84
2021/03/15 06:05:15;;;;;;;9.37;4.87;;;3.90;84.40;;;;;;5022970;28;20029;-86
2021/03/15 06:07:45;;;;;;;7.93;4.38;;;3.90;84.40;;;;;;5021042;28;20296;-86
2021/03/15 06:10:18;;;;;;;15.00;5.22;;;3.90;84.40;;;;;;5024040;28;20042;-87
2021/03/15 06:13:14;;;;;;;8.73;4.93;;;3.90;84.40;;;;;;5027435;28;20041;-86
2021/03/15 06:15:41;;;;;;;6.88;4.53;;;3.80;84.40;;;;;;5011758;28;20038;-85
2021/03/15 06:18:09;;;;;;;8.23;4.63;;;3.80;84.40;;;;;;5025362;28;20141;-85
2021/03/15 06:20:40;;;;;;;7.18;4.63;;;3.80;84.40;;;;;;5002175;28;20030;-85
2021/03/15 06:23:06;;;;;;;7.50;4.70;;;3.80;84.60;;;;;;5024846;28;20022;-86
2021/03/15 06:25:33;;;;;;;8.02;4.60;;;3.70;84.50;;;;;;5019278;28;20420;-86
2021/03/15 06:27:59;;;;;;;7.55;4.40;;;3.70;84.50;;;;;;5022413;28;20016;-85
2021/03/15 06:30:26;;;;;;;8.10;4.68;;;3.60;84.60;;;;;;5023745;28;20032;-84
2021/03/15 06:32:58;;;;;;;7.25;4.20;;;3.60;84.50;;;;;;5018073;28;20056;-85
2021/03/15 06:35:38;;;;;;;6.47;4.20;;;3.60;84.60;;;;;;5023348;28;20026;-85
2021/03/15 06:38:05;;;;;;;6.15;3.85;;;3.60;84.50;;;;;;5022449;28;20040;-85
2021/03/15 06:40:35;;;;;;;8.02;4.30;;;3.60;84.40;;;;;;5022795;28;20022;-84
2021/03/15 06:43:03;;;;;;;6.00;3.47;;;3.60;84.30;;;;;;5023031;28;20081;-85
2021/03/15 06:45:30;;;;;;;8.05;3.70;;;3.60;84.40;;;;;;5021357;28;20186;-85
2021/03/15 06:47:56;;;;;;;5.60;3.85;;;3.60;84.40;;;;;;5019673;28;20068;-85
2021/03/15 06:50:22;;;;;;;3.97;3.55;;;3.60;84.50;;;;;;5016074;28;20058;-85
2021/03/15 06:52:55;;;;;;;6.65;4.03;;;3.60;84.50;;;;;;5020534;28;20110;-84
2021/03/15 06:55:36;;;;;;;6.28;3.88;;;3.60;84.60;;;;;;5039089;28;20036;-85
2021/03/15 06:58:25;;;;;;;4.97;3.70;;;3.60;84.60;;;;;;5032620;28;20029;-85
2021/03/15 07:01:11;;;;;;;5.82;3.58;;;3.60;84.50;;;;;;5021405;28;20034;-85
2021/03/15 07:03:38;;;;;;;5.38;3.75;;;3.60;84.60;;;;;;5014523;28;20040;-86
2021/03/15 07:06:04;;;;;;;6.43;3.60;;;3.60;84.60;;;;;;5022548;28;20022;-86
2021/03/15 07:08:30;;;;;;;4.57;3.20;;;3.60;84.60;;;;;;5022307;28;20381;-86
2021/03/15 07:10:56;;;;;;;6.22;3.45;;;3.50;84.60;;;;;;5019568;28;20022;-85
2021/03/15 07:13:27;;;;;;;6.25;3.30;;;3.60;84.70;;;;;;5020051;28;20096;-84
2021/03/15 07:15:55;;;;;;;4.65;2.90;;;3.60;84.80;;;;;;5020259;28;20476;-86
2021/03/15 07:18:27;;;;;;;4.97;3.10;;;3.60;84.70;;;;;;5018495;28;20060;-85
2021/03/15 07:20:58;;;;;;;3.70;3.00;;;3.60;84.70;;;;;;5016431;28;20030;-85
2021/03/15 07:23:43;;;;;;;3.28;2.88;;;3.70;84.70;;;;;;5016623;28;20080;-85
2021/03/15 07:26:11;;;;;;;4.45;2.90;;;3.70;84.70;;;;;;5016019;28;20018;-86
2021/03/15 07:28:37;;;;;;;3.88;2.40;;;3.70;84.60;;;;;;5019702;28;20072;-85
2021/03/15 07:31:23;;;;;;;4.22;2.95;;;3.80;84.60;;;;;;5019271;28;20053;-86
2021/03/15 07:33:55;;;;;;;3.72;2.92;;;3.80;84.50;;;;;;5018051;28;20304;-86
2021/03/15 07:36:21;;;;;;;4.47;3.47;;;3.90;84.50;;;;;;5019512;28;20026;-86
2021/03/15 07:38:47;;;;;;;5.20;3.33;;;4.00;84.40;;;;;;5019286;28;20049;-86
2021/03/15 07:41:17;;;;;;;3.45;2.63;;;4.00;84.60;;;;;;5019314;28;20507;-86
2021/03/15 07:43:43;;;;;;;3.33;2.72;;;4.00;84.40;;;;;;5018810;28;20124;-85
2021/03/15 07:46:21;;;;;;;3.38;2.53;;;4.00;84.50;;;;;;5003624;28;20604;-86
2021/03/15 07:48:47;;;;;;;4.45;2.58;;;4.00;84.60;;;;;;5018008;28;20060;-85
2021/03/15 07:51:12;;;;;;;2.55;2.33;;;4.10;84.50;;;;;;5019718;28;20026;-84
2021/03/15 07:53:45;;;;;;;4.85;2.83;;;4.10;84.50;;;;;;5023472;28;20475;-84
2021/03/15 07:56:18;;;;;;;4.10;2.60;;;4.20;85.20;;;;;;5036500;28;20024;-84
2021/03/15 07:58:44;;;;;;;2.78;2.58;;;4.20;84.60;;;;;;5018786;28;20025;-84
2021/03/15 08:01:10;;;;;;;5.82;2.58;;;4.10;84.60;;;;;;5015733;28;20038;-84
2021/03/15 08:03:38;;;;;;;4.40;2.35;;;4.10;84.70;;;;;;5021704;28;20097;-84
2021/03/15 08:06:05;;;;;;;2.67;2.13;;;4.10;84.80;;;;;;5023616;28;20025;-85
2021/03/15 08:08:31;;;;;;;5.45;2.50;;;4.10;84.90;;;;;;5024706;28;20030;-84
2021/03/15 08:10:57;;;;;;;2.85;2.40;;;4.10;85.00;;;;;;5024218;28;20056;-85
2021/03/15 08:13:28;;;;;;;4.10;2.22;;;4.10;85.10;;;;;;5022420;28;20026;-85
2021/03/15 08:15:58;;;;;;;3.47;2.10;;;4.10;85.10;;;;;;5023425;28;20033;-85
2021/03/15 08:18:27;;;;;;;3.00;2.50;;;4.20;85.10;;;;;;5019247;28;20033;-85
2021/03/15 08:21:01;;;;;;;3.88;2.67;;;4.10;85.10;;;;;;5022252;28;20026;-86
2021/03/15 08:23:29;;;;;;;2.85;1.80;;;4.20;85.10;;;;;;5015425;28;20056;-86
2021/03/15 08:26:04;;;;;;;2.33;2.10;;;4.30;85.10;;;;;;5034801;28;20026;-86
2021/03/15 08:28:31;;;;;;;2.15;1.88;;;4.40;85.10;;;;;;5041182;28;20580;-86
2021/03/15 08:31:00;;;;;;;1.95;1.80;;;4.50;84.90;;;;;;5024392;28;20028;-86
2021/03/15 08:33:26;;;;;;;2.97;1.60;;;4.50;84.80;;;;;;5023834;28;20088;-86
2021/03/15 08:35:56;;;;;;;2.10;1.80;;;4.50;84.60;;;;;;5024388;28;20026;-86
2021/03/15 08:38:33;;;;;;;2.00;1.90;;;4.40;84.80;;;;;;5024678;28;20033;-86
2021/03/15 08:41:01;;;;;;;2.28;1.80;;;4.40;84.90;;;;;;5024542;28;20427;-86
2021/03/15 08:43:29;;;;;;;1.50;1.40;;;4.40;84.90;;;;;;5022395;28;20083;-85
2021/03/15 08:46:24;;;;;;;2.05;1.70;;;4.30;85.00;;;;;;5017780;28;20041;-86
2021/03/15 08:49:05;;;;;;;1.80;1.70;;;4.30;85.20;;;;;;5014516;28;20034;-86
2021/03/15 08:51:33;;;;;;;1.90;1.80;;;4.30;85.20;;;;;;5012121;28;20032;-86
2021/03/15 08:54:01;;;;;;;1.90;1.50;;;4.30;85.30;;;;;;5022399;28;20030;-86
2021/03/15 08:56:29;;;;;;;3.13;1.60;;;4.20;85.30;;;;;;5025128;28;20037;-85
2021/03/15 08:58:57;;;;;;;4.13;2.03;;;4.30;85.40;;;;;;5025366;28;20022;-86
2021/03/15 09:01:28;;;;;;;3.42;1.63;;;4.30;85.50;;;;;;5024986;28;20021;-85
2021/03/15 09:03:54;;;;;;;1.85;1.58;;;4.30;85.20;;;;;;5024557;28;20052;-85
2021/03/15 09:09:11;;;;;;;1.80;1.70;;;4.40;85.20;;;;;;5026943;28;20034;-85
2021/03/15 09:11:37;;;;;;;1.77;1.52;;;4.40;85.10;;;;;;5024849;28;20053;-85
2021/03/15 09:14:18;;;;;;;2.40;2.20;;;4.40;85.20;;;;;;5023767;28;20026;-85
2021/03/15 09:16:45;;;;;;;4.10;2.65;;;4.40;85.10;;;;;;5023847;28;20022;-85
2021/03/15 09:19:22;;;;;;;1.70;1.60;;;4.40;85.10;;;;;;5024759;28;20022;-85
2021/03/15 09:21:55;;;;;;;1.25;1.20;;;4.40;85.20;;;;;;5023957;28;20033;-85
2021/03/15 09:24:50;;;;;;;1.52;1.42;;;4.40;85.20;;;;;;5023145;28;20036;-85
2021/03/15 09:27:29;;;;;;;2.53;1.83;;;4.40;85.10;;;;;;5023706;28;20034;-85
2021/03/15 09:29:59;;;;;;;2.30;2.13;;;4.40;85.10;;;;;;5024320;28;20500;-86
2021/03/15 09:32:36;;;;;;;4.53;1.40;;;4.40;85.10;;;;;;5023390;28;20045;-84
2021/03/15 09:35:22;;;;;;;1.40;1.30;;;4.50;85.20;;;;;;5023588;28;20480;-85
2021/03/15 09:37:52;;;;;;;1.40;1.30;;;4.40;85.10;;;;;;5020506;28;20396;-85
2021/03/15 09:40:42;;;;;;;1.40;1.30;;;4.50;85.20;;;;;;5024738;28;20033;-85
2021/03/15 09:43:08;;;;;;;1.30;1.20;;;4.50;85.20;;;;;;5015569;28;20026;-85
2021/03/15 09:45:38;;;;;;;1.25;1.15;;;4.60;85.20;;;;;;5023441;28;20033;-85
2021/03/15 09:48:24;;;;;;;1.40;1.30;;;4.60;85.10;;;;;;5022955;28;20446;-85
2021/03/15 09:50:54;;;;;;;1.60;1.50;;;4.60;85.20;;;;;;5024302;28;20125;-85
2021/03/15 09:53:20;;;;;;;2.10;1.92;;;4.60;85.30;;;;;;5023119;28;20333;-84
2021/03/15 09:55:46;;;;;;;1.50;1.40;;;4.60;85.30;;;;;;5024473;28;20057;-85
2021/03/15 09:58:17;;;;;;;1.50;1.40;;;4.60;85.30;;;;;;5023023;28;20018;-85
2021/03/15 10:00:46;;;;;;;2.00;1.55;;;4.60;85.30;;;;;;5022578;28;20022;-85
2021/03/15 10:03:22;;;;;;;3.22;1.77;;;4.70;85.40;;;;;;5020233;28;20029;-85
2021/03/15 10:05:51;;;;;;;1.65;1.55;;;4.70;85.50;;;;;;5025115;28;20030;-85
2021/03/15 10:10:45;;;;;;;2.17;1.73;;;4.80;85.50;;;;;;5010769;28;20482;-67
2021/03/15 10:13:11;;;;;;;2.10;1.90;;;4.80;85.70;;;;;;5009434;28;20037;-66
2021/03/15 10:15:37;;;;;;;2.90;2.00;;;4.90;85.60;;;;;;5009992;28;20030;-65
2021/03/15 10:18:03;;;;;;;2.33;2.13;;;4.90;85.60;;;;;;5012671;28;20079;-65
2021/03/15 10:20:31;;;;;;;3.78;2.90;;;4.90;85.60;;;;;;5021988;28;20387;-66
2021/03/15 10:23:07;;;;;;;4.45;2.45;;;5.00;85.90;;;;;;5006315;28;20029;-67
2021/03/15 10:25:33;;;;;;;5.50;4.03;;;5.10;85.80;;;;;;5005565;28;20025;-66
2021/03/15 10:27:59;;;;;;;3.30;3.00;;;5.10;85.80;;;;;;5011269;28;20060;-67
2021/03/15 10:30:35;;;;;;;2.80;2.60;;;5.20;85.70;;;;;;4993826;28;20109;-66
2021/03/15 10:33:01;;;;;;;3.70;3.00;;;5.20;85.70;;;;;;5005644;28;20569;-68
2021/03/15 10:35:29;;;;;;;3.55;3.03;;;5.20;85.80;;;;;;5010630;28;20030;-66
2021/03/15 10:37:59;;;;;;;4.85;2.78;;;5.30;85.70;;;;;;5010451;28;20022;-66
2021/03/15 10:40:26;;;;;;;4.05;2.55;;;5.30;85.80;;;;;;5010548;28;20026;-65
2021/03/15 10:42:52;;;;;;;3.60;3.30;;;5.30;85.80;;;;;;4992922;28;20061;-66
2021/03/15 10:45:21;;;;;;;2.92;2.63;;;5.40;86.10;;;;;;5009747;28;20029;-67
2021/03/15 10:47:46;;;;;;;3.38;1.70;;;5.30;85.80;;;;;;5008388;28;20033;-67
2021/03/15 10:50:24;;;;;;;2.30;2.10;;;5.30;85.70;;;;;;5010295;28;20038;-67
2021/03/15 10:52:50;;;;;;;4.65;3.20;;;5.30;85.80;;;;;;5009630;28;20099;-67
2021/03/15 10:55:18;;;;;;;3.08;2.33;;;5.40;85.80;;;;;;4997853;28;20022;-67
2021/03/15 10:58:09;;;;;;;3.22;2.65;;;5.40;85.60;;;;;;5010462;28;20033;-67
2021/03/15 11:00:40;;;;;;;2.38;2.20;;;5.50;85.60;;;;;;5010633;28;20022;-67
2021/03/15 11:03:07;;;;;;;7.55;3.00;;;5.50;85.50;;;;;;5006104;28;20494;-65
2021/03/15 11:05:33;;;;;;;4.18;1.92;;;5.50;85.50;;;;;;4991085;28;20113;-67
2021/03/15 11:07:59;;;;;;;3.72;2.38;;;5.50;85.50;;;;;;4994889;28;20033;-67
2021/03/15 11:10:31;;;;;;;1.95;1.80;;;5.50;85.50;;;;;;5010283;28;20200;-67
2021/03/15 11:13:00;;;;;;;1.65;1.55;;;5.60;85.60;;;;;;5010358;28;20060;-67
2021/03/15 11:15:39;;;;;;;4.93;1.83;;;5.60;85.60;;;;;;4990699;28;20427;-66
2021/03/15 11:18:34;;;;;;;2.45;1.88;;;5.60;85.50;;;;;;5010797;28;20025;-67
2021/03/15 11:21:01;;;;;;;6.03;2.05;;;5.60;85.50;;;;;;5005952;28;20498;-67
2021/03/15 11:23:38;;;;;;;2.00;1.90;;;5.70;85.40;;;;;;5010051;28;20435;-66
2021/03/15 11:26:12;;;;;;;2.03;1.92;;;5.70;85.30;;;;;;5009754;28;20104;-67
2021/03/15 11:28:39;;;;;;;2.50;2.30;;;5.90;85.20;;;;;;5010310;28;20032;-67
2021/03/15 11:31:11;;;;;;;2.63;2.42;;;6.00;85.20;;;;;;5009959;28;20045;-67
2021/03/15 11:33:37;;;;;;;1.95;1.85;;;6.00;84.80;;;;;;4999248;28;20038;-66
2021/03/15 11:36:16;;;;;;;2.30;2.10;;;6.10;84.90;;;;;;5021124;28;20105;-67
2021/03/15 11:38:48;;;;;;;1.88;1.77;;;6.10;85.00;;;;;;5006294;28;20030;-67
2021/03/15 11:41:25;;;;;;;2.40;2.20;;;6.20;84.90;;;;;;5013817;28;20022;-66
2021/03/15 11:43:51;;;;;;;2.28;2.00;;;6.10;84.80;;;;;;5013783;28;20601;-67
2021/03/15 11:46:17;;;;;;;2.53;1.92;;;6.20;84.90;;;;;;5013359;28;20026;-67
2021/03/15 11:48:44;;;;;;;2.33;1.92;;;6.20;84.70;;;;;;5014006;28;20025;-67
2021/03/15 11:51:15;;;;;;;2.05;1.95;;;6.20;84.60;;;;;;5012947;28;20026;-66
2021/03/15 11:53:44;;;;;;;1.70;1.60;;;6.20;84.40;;;;;;5023184;28;20026;-67
2021/03/15 11:56:11;;;;;;;4.45;2.03;;;6.20;84.50;;;;;;5013411;28;20057;-67
2021/03/15 11:58:37;;;;;;;1.95;1.85;;;6.30;84.40;;;;;;5013332;28;20030;-67
2021/03/15 12:01:05;;;;;;;2.20;2.00;;;6.30;84.40;;;;;;5013826;28;20485;-70
2021/03/15 12:03:31;;;;;;;4.43;2.08;;;6.30;84.30;;;;;;5002629;28;20105;-67
2021/03/15 12:05:57;;;;;;;1.63;1.52;;;6.30;84.30;;;;;;5007197;28;20204;-67
2021/03/15 12:08:23;;;;;;;2.78;1.83;;;6.40;84.20;;;;;;5021455;28;20551;-67
2021/03/15 12:10:48;;;;;;;16.98;3.35;;;6.40;84.20;;;;;;5013339;28;20056;-67
2021/03/15 12:13:14;;;;;;;1.63;1.52;;;6.40;84.10;;;;;;5012645;28;20022;-66
2021/03/15 12:15:40;;;;;;;3.60;1.80;;;6.40;83.90;;;;;;5012740;28;20172;-67
2021/03/15 12:18:06;;;;;;;1.83;1.73;;;6.40;83.70;;;;;;5011597;28;20050;-66
2021/03/15 12:20:33;;;;;;;1.60;1.50;;;6.40;83.70;;;;;;5017042;28;20124;-67
2021/03/15 12:22:59;;;;;;;1.33;1.23;;;6.40;84.30;;;;;;5016978;28;20022;-67
2021/03/15 12:25:25;;;;;;;1.30;1.27;;;6.40;83.70;;;;;;5015185;28;20073;-66
2021/03/15 12:27:52;;;;;;;3.13;1.48;;;6.40;84.10;;;;;;5012743;28;20025;-66
2021/03/15 12:30:20;;;;;;;1.38;1.27;;;6.60;83.60;;;;;;5012785;28;20026;-65
2021/03/15 12:32:46;;;;;;;1.20;1.20;;;6.60;83.30;;;;;;5007529;28;20036;-67
2021/03/15 12:35:12;;;;;;;2.45;1.42;;;6.70;83.30;;;;;;5009564;28;20494;-68
2021/03/15 12:37:38;;;;;;;1.48;1.35;;;6.70;83.10;;;;;;5012691;28;20073;-67
2021/03/15 12:40:05;;;;;;;1.13;1.13;;;6.80;82.90;;;;;;5013032;28;20398;-66
2021/03/15 12:42:30;;;;;;;2.65;1.40;;;6.90;82.70;;;;;;5012415;28;20628;-66
2021/03/15 12:44:56;;;;;;;1.70;1.60;;;7.10;82.40;;;;;;5011660;28;20040;-66
2021/03/15 12:47:22;;;;;;;1.23;1.13;;;7.40;82.30;;;;;;5011985;28;20058;-66
2021/03/15 12:49:49;;;;;;;1.20;1.10;;;7.80;82.10;;;;;;5012683;28;20040;-66
2021/03/15 12:52:16;;;;;;;1.13;1.02;;;8.20;81.60;;;;;;5012135;28;20025;-66
2021/03/15 12:54:42;;;;;;;1.65;1.10;;;8.50;81.00;;;;;;5012038;28;20098;-66
2021/03/15 12:57:07;;;;;;;1.23;0.90;;;8.50;80.80;;;;;;5012338;28;20033;-66
2021/03/15 12:59:33;;;;;;;4.38;2.03;;;8.40;80.30;;;;;;5012479;28;20029;-66
2021/03/15 13:01:59;;;;;;;4.40;0.93;;;8.10;80.10;;;;;;5004979;28;20661;-66
2021/03/15 13:04:24;;;;;;;1.20;0.70;;;7.70;80.10;;;;;;5004046;28;20037;-66
2021/03/15 13:06:51;;;;;;;1.50;0.70;;;7.50;80.30;;;;;;5012098;28;20413;-66
2021/03/15 13:09:16;;;;;;;3.20;0.85;;;7.20;80.50;;;;;;5012209;28;20597;-66
2021/03/15 13:11:42;;;;;;;1.23;0.85;;;7.20;80.80;;;;;;5011968;28;20124;-66
2021/03/15 13:14:08;;;;;;;0.82;0.82;;;7.20;81.00;;;;;;5011871;28;20030;-67